createdAt,value
2022-08-08T00:00:54.154Z,18.40
2022-08-08T00:03:32.257Z,18.30
2022-08-08T00:06:28.644Z,18.30
2022-08-08T00:09:17.128Z,18.30
2022-08-08T00:12:10.837Z,18.20
2022-08-08T00:15:00.577Z,18.20
2022-08-08T00:18:03.553Z,18.20
2022-08-08T00:20:44.826Z,18.20
2022-08-08T00:23:42.542Z,18.10
2022-08-08T00:26:26.488Z,18.10
2022-08-08T00:29:44.718Z,18.00
2022-08-08T00:32:35.387Z,18.00
2022-08-08T00:35:21.318Z,17.90
2022-08-08T00:38:44.251Z,17.90
2022-08-08T00:41:54.450Z,17.90
2022-08-08T00:44:56.645Z,17.90
2022-08-08T00:48:01.437Z,17.80
2022-08-08T00:51:09.746Z,17.80
2022-08-08T00:54:13.265Z,17.80
2022-08-08T00:56:45.519Z,17.80
2022-08-08T01:00:08.922Z,17.70
2022-08-08T01:04:02.154Z,17.70
2022-08-08T01:06:47.549Z,17.70
2022-08-08T01:09:52.129Z,17.60
2022-08-08T01:12:45.480Z,17.60
2022-08-08T01:15:54.672Z,17.60
2022-08-08T01:19:13.989Z,17.60
2022-08-08T01:23:03.086Z,17.60
2022-08-08T01:25:57.441Z,17.50
2022-08-08T01:29:35.403Z,17.50
2022-08-08T01:32:57.974Z,17.50
2022-08-08T01:36:01.048Z,17.50
2022-08-08T01:38:55.520Z,17.50
2022-08-08T01:41:48.110Z,17.50
2022-08-08T01:44:26.876Z,17.40
2022-08-08T01:48:23.493Z,17.40
2022-08-08T01:52:29.488Z,17.40
2022-08-08T01:55:26.566Z,17.30
2022-08-08T01:58:38.187Z,17.30
2022-08-08T02:01:54.839Z,17.30
2022-08-08T02:04:43.035Z,17.30
2022-08-08T02:07:25.493Z,17.20
2022-08-08T02:10:37.349Z,17.20
2022-08-08T02:13:53.623Z,17.20
2022-08-08T02:16:33.531Z,17.20
2022-08-08T02:20:07.585Z,17.20
2022-08-08T02:22:56.863Z,17.20
2022-08-08T02:25:43.546Z,17.20
2022-08-08T02:28:42.734Z,17.10
2022-08-08T02:32:04.745Z,17.10
2022-08-08T02:35:07.636Z,17.10
2022-08-08T02:37:53.443Z,17.00
2022-08-08T02:40:49.931Z,17.00
2022-08-08T02:44:38.106Z,17.00
2022-08-08T02:46:44.025Z,17.00
2022-08-08T02:49:50.843Z,16.90
2022-08-08T02:52:54.775Z,16.90
2022-08-08T02:55:57.687Z,16.90
2022-08-08T02:59:36.909Z,16.90
2022-08-08T03:02:29.899Z,16.90
2022-08-08T03:05:18.915Z,16.90
2022-08-08T03:08:38.435Z,16.90
2022-08-08T03:12:03.130Z,16.80
2022-08-08T03:16:03.866Z,16.80
2022-08-08T03:18:13.750Z,16.80
2022-08-08T03:20:51.449Z,16.80
2022-08-08T03:23:21.257Z,16.80
2022-08-08T03:25:50.175Z,16.70
2022-08-08T03:28:41.120Z,16.70
2022-08-08T03:31:26.848Z,16.70
2022-08-08T03:34:04.902Z,16.70
2022-08-08T03:36:33.298Z,16.70
2022-08-08T03:39:15.278Z,16.70
2022-08-08T03:42:28.151Z,16.70
2022-08-08T03:44:35.409Z,16.70
2022-08-08T03:47:14.177Z,16.60
2022-08-08T03:49:57.185Z,16.60
2022-08-08T03:52:31.694Z,16.60
2022-08-08T03:55:09.544Z,16.50
2022-08-08T03:58:30.032Z,16.50
2022-08-08T04:00:27.678Z,16.50
2022-08-08T04:03:03.845Z,16.50
2022-08-08T04:05:37.469Z,16.50
2022-08-08T04:08:33.430Z,16.40
2022-08-08T04:11:11.015Z,16.40
2022-08-08T04:14:03.438Z,16.40
2022-08-08T04:16:38.858Z,16.40
2022-08-08T04:19:23.485Z,16.40
2022-08-08T04:21:51.192Z,16.40
2022-08-08T04:24:22.413Z,16.40
2022-08-08T04:26:57.227Z,16.40
2022-08-08T04:29:25.342Z,16.40
2022-08-08T04:31:59.029Z,16.40
2022-08-08T04:34:31.729Z,16.40
2022-08-08T04:36:59.254Z,16.40
2022-08-08T04:40:05.663Z,16.50
2022-08-08T04:42:15.768Z,16.50
2022-08-08T04:44:47.546Z,16.50
2022-08-08T04:47:16.592Z,16.50
2022-08-08T04:49:59.035Z,16.50
2022-08-08T04:52:33.606Z,16.50
2022-08-08T04:55:01.535Z,16.50
2022-08-08T04:57:28.904Z,16.50
2022-08-08T04:59:58.066Z,16.60
2022-08-08T05:02:28.604Z,16.60
2022-08-08T05:04:59.528Z,16.60
2022-08-08T05:07:42.150Z,16.60
2022-08-08T05:10:12.892Z,16.60
2022-08-08T05:12:43.040Z,16.60
2022-08-08T05:16:49.380Z,16.70
2022-08-08T05:18:14.383Z,16.60
2022-08-08T05:20:49.797Z,16.70
2022-08-08T05:23:17.846Z,16.70
2022-08-08T05:25:46.785Z,16.70
2022-08-08T05:28:14.941Z,16.70
2022-08-08T05:30:47.330Z,16.80
2022-08-08T05:33:16.843Z,16.80
2022-08-08T05:35:46.246Z,16.80
2022-08-08T05:38:31.691Z,16.90
2022-08-08T05:41:03.464Z,16.90
2022-08-08T05:44:02.538Z,17.00
2022-08-08T05:46:24.436Z,17.00
2022-08-08T05:48:54.435Z,17.10
2022-08-08T05:51:22.489Z,17.10
2022-08-08T05:54:24.482Z,17.20
2022-08-08T05:56:42.293Z,17.20
2022-08-08T05:59:59.975Z,17.20
2022-08-08T06:02:40.666Z,17.30
2022-08-08T06:05:24.356Z,17.40
2022-08-08T06:08:10.384Z,17.40
2022-08-08T06:10:52.672Z,17.50
2022-08-08T06:13:22.633Z,17.60
2022-08-08T06:15:54.518Z,17.60
2022-08-08T06:18:25.946Z,17.70
2022-08-08T06:21:11.281Z,17.90
2022-08-08T06:23:52.767Z,18.40
2022-08-08T06:26:43.198Z,19.10
2022-08-08T06:29:48.617Z,20.10
2022-08-08T06:32:17.198Z,20.80
2022-08-08T06:36:08.244Z,21.60
2022-08-08T06:38:37.129Z,22.30
2022-08-08T06:41:12.348Z,23.10
2022-08-08T06:43:56.867Z,23.80
2022-08-08T06:46:24.599Z,24.40
2022-08-08T06:48:58.261Z,24.70
2022-08-08T06:51:45.826Z,24.90
2022-08-08T06:54:13.537Z,25.20
2022-08-08T06:56:41.937Z,25.60
2022-08-08T06:59:14.169Z,26.00
2022-08-08T07:02:27.856Z,26.40
2022-08-08T07:05:11.867Z,26.80
2022-08-08T07:07:53.031Z,26.90
2022-08-08T07:10:25.457Z,27.40
2022-08-08T07:12:55.230Z,27.70
2022-08-08T07:16:03.959Z,27.90
2022-08-08T07:18:40.842Z,28.40
2022-08-08T07:21:18.439Z,28.40
2022-08-08T18:34:40.333Z,25.40
2022-08-08T18:37:10.175Z,25.50
2022-08-08T18:39:44.800Z,25.30
2022-08-08T18:42:16.462Z,25.20
2022-08-08T18:44:54.737Z,25.20
2022-08-08T18:47:26.398Z,25.10
2022-08-08T18:49:58.356Z,25.00
2022-08-08T18:52:29.662Z,25.00
2022-08-08T18:55:00.809Z,24.80
2022-08-08T18:57:42.038Z,24.80
2022-08-08T19:00:20.601Z,24.70
2022-08-08T19:02:55.411Z,24.60
2022-08-08T19:05:48.648Z,24.50
2022-08-08T19:08:24.732Z,24.40
2022-08-08T19:29:35.622Z,23.90
2022-08-08T19:32:12.755Z,23.80
2022-08-08T19:34:41.322Z,23.70
2022-08-08T19:37:16.363Z,23.60
2022-08-08T19:39:45.640Z,23.60
2022-08-08T19:42:13.563Z,23.50
2022-08-08T19:44:43.194Z,23.50
2022-08-08T19:47:14.356Z,23.40
2022-08-08T19:49:43.193Z,23.30
2022-08-08T19:52:13.368Z,23.30
2022-08-08T19:54:43.105Z,23.20
2022-08-08T19:57:11.261Z,23.10
2022-08-08T19:59:42.038Z,23.10
2022-08-08T20:02:10.634Z,23.00
2022-08-08T20:04:38.594Z,23.00
2022-08-08T20:08:29.786Z,22.90
2022-08-08T20:09:57.092Z,22.90
2022-08-08T20:12:32.270Z,22.80
2022-08-08T20:15:14.819Z,22.80
2022-08-08T20:17:46.829Z,22.70
2022-08-08T20:20:19.734Z,22.60
2022-08-08T20:22:53.840Z,22.60
2022-08-08T20:25:21.668Z,22.60
2022-08-08T20:27:50.541Z,22.50
2022-08-08T20:30:52.357Z,22.40
2022-08-08T20:33:18.738Z,22.40
2022-08-08T20:35:58.425Z,22.30
2022-08-08T20:38:32.575Z,22.30
2022-08-08T20:41:15.375Z,22.20
2022-08-08T20:43:49.341Z,22.20
2022-08-08T20:46:20.679Z,22.20
2022-08-08T20:48:51.389Z,22.20
2022-08-08T20:51:18.604Z,22.20
2022-08-08T20:53:59.966Z,22.20
2022-08-08T20:56:35.364Z,22.10
2022-08-08T20:59:06.138Z,22.10
2022-08-08T21:02:06.797Z,22.00
2022-08-08T21:04:20.919Z,22.00
2022-08-08T21:06:53.143Z,21.90
2022-08-08T21:09:21.794Z,21.80
2022-08-08T21:11:52.052Z,21.70
2022-08-08T21:14:30.351Z,21.70
2022-08-08T21:17:01.393Z,21.70
2022-08-08T21:19:44.572Z,21.80
2022-08-08T21:22:15.234Z,21.50
2022-08-08T21:24:53.504Z,21.40
2022-08-08T21:28:05.082Z,21.60
2022-08-08T21:30:18.735Z,21.40
2022-08-08T21:32:51.981Z,21.20
2022-08-08T21:36:16.156Z,21.20
2022-08-08T21:38:17.233Z,21.10
2022-08-08T21:40:56.257Z,21.20
2022-08-08T21:43:34.159Z,21.10
2022-08-08T21:48:08.148Z,21.10
2022-08-08T21:48:57.758Z,21.00
2022-08-08T21:54:18.217Z,21.00
2022-08-08T21:54:51.565Z,21.00
2022-08-08T21:57:08.203Z,21.20
2022-08-08T22:00:01.751Z,21.00
2022-08-08T22:02:24.259Z,20.90
2022-08-08T22:04:56.128Z,21.10
2022-08-08T22:07:40.106Z,20.80
2022-08-08T22:10:18.681Z,21.10
2022-08-08T22:13:17.356Z,20.70
2022-08-08T22:15:59.025Z,20.70
2022-08-08T22:18:34.457Z,20.80
2022-08-08T22:21:14.069Z,20.60
2022-08-08T22:23:50.445Z,20.60
2022-08-08T22:26:29.599Z,20.60
2022-08-08T22:29:13.485Z,20.80
2022-08-08T22:31:58.939Z,20.50
2022-08-08T22:34:39.527Z,20.50
2022-08-08T22:37:27.513Z,20.70
2022-08-08T22:40:00.918Z,20.70
2022-08-08T22:42:31.708Z,20.40
2022-08-08T22:45:05.208Z,20.40
2022-08-08T22:47:38.437Z,20.60
2022-08-08T22:50:26.535Z,20.70
2022-08-08T22:54:15.655Z,20.70
2022-08-08T22:55:58.589Z,20.60
2022-08-08T22:58:31.189Z,20.50
2022-08-08T23:01:02.214Z,20.20
2022-08-08T23:03:54.709Z,20.60
2022-08-08T23:06:24.099Z,20.30
2022-08-08T23:08:54.804Z,20.20
2022-08-08T23:11:31.058Z,20.20
2022-08-08T23:14:12.437Z,19.90
2022-08-08T23:16:43.560Z,20.40
2022-08-08T23:19:11.680Z,19.90
2022-08-08T23:21:39.077Z,19.90
2022-08-08T23:24:06.946Z,20.10
2022-08-08T23:26:34.392Z,20.10
2022-08-08T23:29:02.352Z,19.90
2022-08-08T23:31:29.223Z,19.70
2022-08-08T23:34:16.377Z,20.00
2022-08-08T23:36:44.923Z,19.90
2022-08-08T23:39:13.233Z,19.60
2022-08-08T23:41:45.804Z,19.80
2022-08-08T23:44:14.634Z,19.70
2022-08-08T23:48:59.772Z,19.80
2022-08-08T23:49:29.275Z,19.80
2022-08-08T23:52:05.544Z,19.90
2022-08-08T23:54:42.233Z,19.60
2022-08-08T23:57:26.431Z,19.80
